createdAt,value
2019-05-29T00:01:38.254Z,11.30
2019-05-29T00:04:10.159Z,11.40
2019-05-29T00:06:40.745Z,11.30
2019-05-29T00:09:12.130Z,11.30
2019-05-29T00:11:42.826Z,11.30
2019-05-29T00:14:24.855Z,11.30
2019-05-29T00:16:45.523Z,11.30
2019-05-29T00:19:16.254Z,11.20
2019-05-29T00:21:46.782Z,11.20
2019-05-29T00:24:17.310Z,11.20
2019-05-29T00:26:47.841Z,11.20
2019-05-29T00:29:18.368Z,11.10
2019-05-29T00:31:48.896Z,11.10
2019-05-29T00:34:19.221Z,11.00
2019-05-29T00:36:49.753Z,11.00
2019-05-29T00:39:20.073Z,11.00
2019-05-29T00:41:50.602Z,11.00
2019-05-29T00:44:33.630Z,11.00
2019-05-29T00:46:53.298Z,10.90
2019-05-29T00:49:23.826Z,10.90
2019-05-29T00:51:54.559Z,10.90
2019-05-29T00:54:25.114Z,10.90
2019-05-29T00:56:55.617Z,10.90
2019-05-29T00:59:26.350Z,10.90
2019-05-29T01:01:56.673Z,10.80
2019-05-29T01:04:27.202Z,10.80
2019-05-29T01:06:57.730Z,10.90
2019-05-29T01:09:28.668Z,10.80
2019-05-29T01:11:59.196Z,10.80
2019-05-29T01:14:29.726Z,10.80
2019-05-29T01:17:00.052Z,10.80
2019-05-29T01:19:30.374Z,10.80
2019-05-29T01:22:00.699Z,10.80
2019-05-29T01:24:31.224Z,10.80
2019-05-29T01:27:01.549Z,10.80
2019-05-29T01:29:32.077Z,10.80
2019-05-29T01:32:02.605Z,10.80
2019-05-29T01:34:33.136Z,10.80
2019-05-29T01:37:03.869Z,10.80
2019-05-29T01:39:34.248Z,10.70
2019-05-29T01:42:04.521Z,10.70
2019-05-29T01:44:35.045Z,10.70
2019-05-29T01:47:05.368Z,10.70
2019-05-29T01:49:35.899Z,10.70
2019-05-29T01:52:06.427Z,10.70
2019-05-29T01:54:36.749Z,10.70
2019-05-29T01:57:26.529Z,10.70
2019-05-29T01:59:56.852Z,10.60
2019-05-29T02:02:28.157Z,10.60
2019-05-29T02:04:58.933Z,10.60
2019-05-29T02:07:29.257Z,10.60
2019-05-29T02:09:59.582Z,10.60
2019-05-29T02:12:30.109Z,10.50
2019-05-29T02:15:00.638Z,10.50
2019-05-29T02:17:31.175Z,10.50
2019-05-29T02:20:01.900Z,10.60
2019-05-29T02:22:32.432Z,10.50
2019-05-29T02:25:02.956Z,10.50
2019-05-29T02:27:33.495Z,10.50
2019-05-29T02:30:05.659Z,10.50
2019-05-29T02:32:36.183Z,10.50
2019-05-29T02:35:07.735Z,10.50
2019-05-29T02:37:38.062Z,10.50
2019-05-29T02:40:09.201Z,10.50
2019-05-29T02:42:39.729Z,10.50
2019-05-29T02:45:10.668Z,10.50
2019-05-29T02:47:41.202Z,10.40
2019-05-29T02:50:12.136Z,10.50
2019-05-29T02:52:42.664Z,10.40
2019-05-29T02:55:13.192Z,10.50
2019-05-29T02:57:43.515Z,10.40
2019-05-29T03:00:15.118Z,10.40
2019-05-29T03:02:45.803Z,10.40
2019-05-29T03:05:16.125Z,10.40
2019-05-29T03:07:46.858Z,10.40
2019-05-29T03:10:17.593Z,10.40
2019-05-29T03:12:48.121Z,10.30
2019-05-29T03:15:18.980Z,10.40
2019-05-29T03:17:49.588Z,10.40
2019-05-29T03:20:19.910Z,10.40
2019-05-29T03:22:50.439Z,10.40
2019-05-29T03:25:20.765Z,10.40
2019-05-29T03:27:51.088Z,10.40
2019-05-29T03:30:21.621Z,10.30
2019-05-29T03:32:52.156Z,10.30
2019-05-29T03:35:22.679Z,10.40
2019-05-29T03:37:53.412Z,10.30
2019-05-29T03:40:23.942Z,10.30
2019-05-29T03:42:54.257Z,10.40
2019-05-29T03:45:24.583Z,10.30
2019-05-29T03:47:55.110Z,10.30
2019-05-29T03:50:26.575Z,10.30
2019-05-29T03:52:57.601Z,10.30
2019-05-29T03:55:29.246Z,10.30
2019-05-29T03:58:00.096Z,10.30
2019-05-29T04:00:36.737Z,10.30
2019-05-29T04:03:02.173Z,10.30
2019-05-29T04:05:33.465Z,10.30
2019-05-29T04:08:04.458Z,10.30
2019-05-29T04:10:37.161Z,10.30
2019-05-29T04:13:06.431Z,10.40
2019-05-29T04:15:38.680Z,10.30
2019-05-29T04:18:20.388Z,10.40
2019-05-29T04:20:52.255Z,10.40
2019-05-29T04:23:24.630Z,10.30
2019-05-29T04:25:57.003Z,10.40
2019-05-29T04:28:30.216Z,10.40
2019-05-29T04:31:00.310Z,10.40
2019-05-29T04:33:32.459Z,10.50
2019-05-29T04:36:02.392Z,10.50
2019-05-29T04:38:33.845Z,10.50
2019-05-29T04:41:05.086Z,10.60
2019-05-29T04:43:37.122Z,10.50
2019-05-29T04:46:07.169Z,10.60
2019-05-29T04:48:39.917Z,10.60
2019-05-29T04:51:10.272Z,10.60
2019-05-29T04:53:41.005Z,10.70
2019-05-29T04:56:12.967Z,10.70
2019-05-29T04:58:43.496Z,10.60
2019-05-29T05:01:13.774Z,10.60
2019-05-29T05:03:44.349Z,10.60
2019-05-29T05:06:14.672Z,10.70
2019-05-29T05:08:45.201Z,10.70
2019-05-29T05:11:15.815Z,10.70
2019-05-29T05:13:46.669Z,10.70
2019-05-29T05:16:17.032Z,10.70
2019-05-29T05:18:47.725Z,10.80
2019-05-29T05:21:18.252Z,10.80
2019-05-29T05:23:49.191Z,10.80
2019-05-29T05:26:19.924Z,10.70
2019-05-29T05:28:50.680Z,10.70
2019-05-29T05:31:21.597Z,10.70
2019-05-29T05:33:53.763Z,10.70
2019-05-29T05:36:24.111Z,10.80
2019-05-29T05:38:54.616Z,10.80
2019-05-29T05:41:26.162Z,10.80
2019-05-29T05:43:56.383Z,10.80
2019-05-29T05:46:26.818Z,10.90
2019-05-29T05:48:57.140Z,11.00
2019-05-29T05:51:27.669Z,11.10
2019-05-29T05:53:57.993Z,11.10
2019-05-29T05:56:28.735Z,11.30
2019-05-29T05:58:59.460Z,11.40
2019-05-29T06:01:29.989Z,11.40
2019-05-29T06:04:00.416Z,11.40
2019-05-29T06:06:31.951Z,11.30
2019-05-29T06:09:02.596Z,11.30
2019-05-29T06:11:34.097Z,11.30
2019-05-29T06:14:05.702Z,11.30
2019-05-29T06:16:36.511Z,11.30
2019-05-29T06:19:07.169Z,11.40
2019-05-29T06:21:38.716Z,11.60
2019-05-29T06:24:09.454Z,11.80
2019-05-29T06:26:41.009Z,11.90
2019-05-29T06:29:11.739Z,11.90
2019-05-29T06:31:43.436Z,12.10
2019-05-29T06:34:14.025Z,12.20
2019-05-29T06:36:47.462Z,12.30
2019-05-29T06:39:16.723Z,12.30
2019-05-29T06:41:47.045Z,12.30
2019-05-29T06:44:17.369Z,12.40
2019-05-29T06:46:48.104Z,12.40
2019-05-29T06:49:18.631Z,12.40
2019-05-29T06:51:49.160Z,12.40
2019-05-29T06:54:19.688Z,12.40
2019-05-29T06:56:50.629Z,12.30
2019-05-29T06:59:21.156Z,12.40
2019-05-29T07:01:51.479Z,12.50
2019-05-29T07:04:22.006Z,12.60
2019-05-29T07:06:52.332Z,12.70
2019-05-29T07:09:22.655Z,12.80
2019-05-29T07:11:53.185Z,12.90
2019-05-29T07:14:24.123Z,13.00
2019-05-29T07:16:56.210Z,13.10
2019-05-29T07:19:45.121Z,13.10
2019-05-29T07:21:58.374Z,13.10
2019-05-29T07:24:28.693Z,13.10
2019-05-29T07:26:59.840Z,13.20
2019-05-29T07:29:30.161Z,13.20
2019-05-29T07:32:00.688Z,13.20
2019-05-29T07:34:47.236Z,13.40
2019-05-29T07:37:02.770Z,13.50
2019-05-29T07:39:33.297Z,13.50
2019-05-29T07:42:04.031Z,13.40
2019-05-29T07:44:34.560Z,13.60
2019-05-29T07:47:04.884Z,13.70
2019-05-29T07:49:39.042Z,13.90
2019-05-29T07:52:07.173Z,14.20
2019-05-29T07:54:37.511Z,14.60
2019-05-29T07:57:08.021Z,15.30
2019-05-29T07:59:38.619Z,16.20
2019-05-29T08:02:09.488Z,16.90
2019-05-29T08:04:40.902Z,16.60
2019-05-29T08:07:11.569Z,16.20
2019-05-29T08:09:42.388Z,16.20
2019-05-29T08:15:09.577Z,16.10
2019-05-29T08:17:40.104Z,16.00
2019-05-29T08:20:10.843Z,16.20
2019-05-29T08:22:42.266Z,16.50
2019-05-29T08:25:13.941Z,16.80
2019-05-29T08:27:44.725Z,16.90
2019-05-29T08:30:15.816Z,17.00
2019-05-29T08:32:46.957Z,17.10
2019-05-29T08:35:18.095Z,17.80
2019-05-29T08:37:49.156Z,19.10
2019-05-29T08:40:20.202Z,20.40
2019-05-29T08:42:51.389Z,21.90
2019-05-29T08:45:21.731Z,22.50
2019-05-29T08:47:51.971Z,22.10
2019-05-29T08:50:22.086Z,22.10
2019-05-29T08:52:52.378Z,22.30
2019-05-29T08:55:22.495Z,22.60
2019-05-29T08:57:52.561Z,22.90
2019-05-29T09:00:23.157Z,22.90
2019-05-29T09:02:53.171Z,23.20
2019-05-29T09:05:23.561Z,23.80
2019-05-29T09:07:54.349Z,24.00
2019-05-29T09:10:24.514Z,23.80
2019-05-29T09:13:03.883Z,23.80
2019-05-29T09:15:27.381Z,24.00
2019-05-29T09:17:57.534Z,23.70
2019-05-29T09:20:43.487Z,23.60
2019-05-29T09:23:00.604Z,22.90
2019-05-29T09:25:30.627Z,22.00
2019-05-29T09:28:01.046Z,21.80
2019-05-29T09:30:31.372Z,22.00
2019-05-29T09:33:02.106Z,22.60
2019-05-29T09:35:32.632Z,23.70
2019-05-29T09:38:02.958Z,24.50
2019-05-29T09:40:33.504Z,24.70
2019-05-29T09:43:04.673Z,25.10
2019-05-29T09:45:35.555Z,24.50
2019-05-29T09:48:06.407Z,24.20
2019-05-29T09:50:49.377Z,24.30
2019-05-29T09:53:08.588Z,24.00
2019-05-29T09:55:38.909Z,23.20
2019-05-29T09:58:09.436Z,21.90
2019-05-29T10:00:39.968Z,20.30
2019-05-29T10:03:10.289Z,19.50
2019-05-29T10:05:41.257Z,19.60
2019-05-29T10:08:12.169Z,19.40
2019-05-29T10:10:42.704Z,19.80
2019-05-29T10:13:12.907Z,19.70
2019-05-29T10:15:46.008Z,19.00
2019-05-29T10:18:31.263Z,18.90
2019-05-29T10:20:48.086Z,18.90
2019-05-29T10:23:20.081Z,18.90
2019-05-29T10:25:50.781Z,18.60
2019-05-29T10:28:21.104Z,18.10
2019-05-29T10:30:52.757Z,17.90
2019-05-29T10:33:23.189Z,18.00
2019-05-29T10:35:55.430Z,18.00
2019-05-29T10:38:25.770Z,17.80
2019-05-29T10:41:05.956Z,17.70
2019-05-29T10:43:34.278Z,17.80
2019-05-29T10:46:00.745Z,17.70
2019-05-29T10:48:30.893Z,17.70
2019-05-29T10:51:00.932Z,17.90
2019-05-29T10:53:31.005Z,17.70
2019-05-29T10:56:01.002Z,17.60
2019-05-29T10:58:45.799Z,17.70
2019-05-29T11:01:02.824Z,17.60
2019-05-29T11:03:32.906Z,17.60
2019-05-29T11:06:02.934Z,17.50
2019-05-29T11:08:33.454Z,17.70
2019-05-29T11:11:03.980Z,17.80
2019-05-29T11:13:34.918Z,18.10
2019-05-29T11:16:05.449Z,18.40
2019-05-29T11:18:35.988Z,18.80
2019-05-29T11:21:06.313Z,19.20
2019-05-29T11:23:36.625Z,19.70
2019-05-29T11:26:07.151Z,19.70
2019-05-29T11:28:37.690Z,19.70
2019-05-29T11:31:08.210Z,19.10
2019-05-29T11:33:38.532Z,18.80
2019-05-29T11:36:12.863Z,18.50
2019-05-29T11:38:40.824Z,18.10
2019-05-29T11:41:25.159Z,17.80
2019-05-29T11:43:43.311Z,17.60
2019-05-29T11:46:14.048Z,17.40
2019-05-29T11:48:44.572Z,17.50
2019-05-29T11:51:14.895Z,17.50
2019-05-29T11:53:45.471Z,17.60
2019-05-29T11:56:15.953Z,17.70
2019-05-29T11:58:46.480Z,17.80
2019-05-29T12:01:17.009Z,17.90
2019-05-29T12:04:14.015Z,17.80
2019-05-29T12:06:19.297Z,17.80
2019-05-29T12:08:51.342Z,17.60
2019-05-29T12:11:21.787Z,17.50
2019-05-29T12:13:54.008Z,17.70
2019-05-29T12:16:25.781Z,17.60
2019-05-29T12:18:56.238Z,17.60
2019-05-29T12:21:26.997Z,17.40
2019-05-29T12:23:58.101Z,17.40
2019-05-29T12:26:28.847Z,17.20
2019-05-29T12:29:07.316Z,17.30
2019-05-29T12:31:31.749Z,17.20
2019-05-29T12:34:12.827Z,17.20
2019-05-29T12:36:33.834Z,17.10
2019-05-29T12:39:05.799Z,17.20
2019-05-29T12:41:36.554Z,17.20
2019-05-29T12:44:07.462Z,17.20
2019-05-29T12:46:37.991Z,17.30
2019-05-29T12:49:08.316Z,17.30
2019-05-29T12:51:38.848Z,17.20
2019-05-29T12:54:09.786Z,17.20
2019-05-29T12:56:40.327Z,17.30
2019-05-29T12:59:11.867Z,17.30
2019-05-29T13:01:43.728Z,17.10
2019-05-29T13:04:16.739Z,17.00
2019-05-29T13:06:47.348Z,17.00
2019-05-29T13:09:17.663Z,17.10
2019-05-29T13:11:48.234Z,17.10
2019-05-29T13:14:19.134Z,17.10
2019-05-29T13:16:49.663Z,16.80
2019-05-29T13:19:20.187Z,16.60
2019-05-29T13:21:50.405Z,16.50
2019-05-29T13:24:21.245Z,16.40
2019-05-29T13:26:51.589Z,16.30
2019-05-29T13:29:22.101Z,16.20
2019-05-29T13:31:55.656Z,16.00
2019-05-29T13:34:24.801Z,16.00
2019-05-29T13:36:59.868Z,15.90
2019-05-29T13:39:29.879Z,15.90
2019-05-29T13:42:05.691Z,15.90
2019-05-29T13:44:32.237Z,15.70
2019-05-29T13:47:04.105Z,15.70
2019-05-29T13:49:34.722Z,15.60
2019-05-29T13:52:09.996Z,15.60
2019-05-29T13:54:37.624Z,15.70
2019-05-29T13:57:08.807Z,15.60
2019-05-29T13:59:39.506Z,15.70
2019-05-29T14:02:10.474Z,15.70
2019-05-29T14:04:40.659Z,15.70
2019-05-29T14:07:11.212Z,15.70
2019-05-29T14:09:41.487Z,15.70
2019-05-29T14:12:11.602Z,15.70
2019-05-29T14:14:41.673Z,15.70
2019-05-29T14:17:12.597Z,15.60
2019-05-29T14:19:43.028Z,15.60
2019-05-29T14:22:14.833Z,15.60
2019-05-29T14:24:46.395Z,15.50
2019-05-29T14:27:16.400Z,15.60
2019-05-29T14:29:46.576Z,15.60
2019-05-29T14:32:28.375Z,15.50
2019-05-29T14:34:57.219Z,15.50
2019-05-29T14:37:27.792Z,15.60
2019-05-29T14:39:58.199Z,15.40
2019-05-29T14:42:28.642Z,15.60
2019-05-29T14:44:58.496Z,15.60
2019-05-29T14:47:28.527Z,15.60
2019-05-29T14:49:58.624Z,15.50
2019-05-29T14:52:28.615Z,15.60
2019-05-29T14:54:58.762Z,15.60
2019-05-29T14:57:28.760Z,15.50
2019-05-29T14:59:58.657Z,15.70
2019-05-29T15:02:28.575Z,15.70
2019-05-29T15:04:58.468Z,15.80
2019-05-29T15:07:28.468Z,15.60
2019-05-29T15:09:58.380Z,15.60
2019-05-29T15:12:28.332Z,15.50
2019-05-29T15:14:58.306Z,15.50
2019-05-29T15:17:28.264Z,15.50
2019-05-29T15:19:58.153Z,15.50
2019-05-29T15:22:28.176Z,15.60
2019-05-29T15:25:07.988Z,15.70
2019-05-29T15:27:30.063Z,15.90
2019-05-29T15:30:00.116Z,15.80
2019-05-29T15:32:30.489Z,15.80
2019-05-29T15:35:00.508Z,15.80
2019-05-29T15:37:30.377Z,15.80
2019-05-29T15:40:00.282Z,15.90
2019-05-29T15:42:30.264Z,16.00
2019-05-29T15:45:00.106Z,16.10
2019-05-29T15:47:30.305Z,16.00
2019-05-29T15:50:00.386Z,15.90
2019-05-29T15:52:30.474Z,15.90
2019-05-29T15:55:17.434Z,16.00
2019-05-29T15:57:31.896Z,16.10
2019-05-29T16:00:01.848Z,16.30
2019-05-29T16:02:32.030Z,16.30
2019-05-29T16:05:02.000Z,16.40
2019-05-29T16:07:32.015Z,16.20
2019-05-29T16:10:01.979Z,16.40
2019-05-29T16:12:31.946Z,16.50
2019-05-29T16:15:01.795Z,16.50
2019-05-29T16:17:31.844Z,16.60
2019-05-29T16:20:02.034Z,16.60
2019-05-29T16:22:32.459Z,16.70
2019-05-29T16:25:02.491Z,16.70
2019-05-29T16:27:32.470Z,16.50
2019-05-29T16:30:02.505Z,16.40
2019-05-29T16:32:32.582Z,16.20
2019-05-29T16:35:02.473Z,16.30
2019-05-29T16:37:32.447Z,16.30
2019-05-29T16:40:02.337Z,16.40
2019-05-29T16:42:32.214Z,16.40
2019-05-29T16:45:02.073Z,16.30
2019-05-29T16:47:32.073Z,16.30
2019-05-29T16:50:02.070Z,16.20
2019-05-29T16:52:32.058Z,16.10
2019-05-29T16:55:02.072Z,16.10
2019-05-29T16:57:32.450Z,16.00
2019-05-29T17:00:02.306Z,15.90
2019-05-29T17:02:32.491Z,15.70
2019-05-29T17:05:02.521Z,15.60
2019-05-29T17:07:32.716Z,15.50
2019-05-29T17:10:02.952Z,15.40
2019-05-29T17:12:32.851Z,15.30
2019-05-29T17:15:02.761Z,15.20
2019-05-29T17:17:32.839Z,15.10
2019-05-29T17:20:02.796Z,15.00
2019-05-29T17:22:33.545Z,14.90
2019-05-29T17:25:03.894Z,14.80
2019-05-29T17:27:36.634Z,14.80
2019-05-29T17:30:08.463Z,14.70
2019-05-29T17:32:38.502Z,14.60
2019-05-29T17:35:09.021Z,14.60
2019-05-29T17:37:39.918Z,14.50
2019-05-29T17:40:10.856Z,14.50
2019-05-29T17:42:43.841Z,14.40
2019-05-29T17:45:19.542Z,14.30
2019-05-29T17:47:47.357Z,14.20
2019-05-29T17:50:20.146Z,14.20
2019-05-29T17:52:50.460Z,14.10
2019-05-29T17:55:22.142Z,14.00
2019-05-29T17:57:53.155Z,14.00
2019-05-29T18:00:24.686Z,13.90
2019-05-29T18:02:55.135Z,13.90
2019-05-29T18:05:26.694Z,13.80
2019-05-29T18:08:00.808Z,13.80
2019-05-29T18:10:28.464Z,13.70
2019-05-29T18:12:58.647Z,13.60
2019-05-29T18:15:28.607Z,13.60
2019-05-29T18:17:58.889Z,13.50
2019-05-29T18:20:29.279Z,13.40
2019-05-29T18:22:59.274Z,13.40
2019-05-29T18:25:29.338Z,13.30
2019-05-29T18:27:59.376Z,13.20
2019-05-29T18:30:29.658Z,13.20
2019-05-29T18:32:59.594Z,13.20
2019-05-29T18:35:29.654Z,13.10
2019-05-29T18:37:59.592Z,13.00
2019-05-29T18:40:29.684Z,13.00
2019-05-29T18:42:59.718Z,12.90
2019-05-29T18:45:31.767Z,12.90
2019-05-29T18:48:01.695Z,12.80
2019-05-29T18:50:32.761Z,12.80
2019-05-29T18:53:02.882Z,12.70
2019-05-29T18:55:34.482Z,12.70
2019-05-29T18:58:04.598Z,11.80
2019-05-29T19:00:34.939Z,12.50
2019-05-29T19:03:05.465Z,12.50
2019-05-29T19:05:36.610Z,12.50
2019-05-29T19:08:07.137Z,12.40
2019-05-29T19:10:37.227Z,12.40
2019-05-29T19:13:07.228Z,12.40
2019-05-29T19:15:37.090Z,12.30
2019-05-29T19:18:06.999Z,12.30
2019-05-29T19:20:36.986Z,12.20
2019-05-29T19:23:07.009Z,12.20
2019-05-29T19:25:37.070Z,12.10
2019-05-29T19:28:07.043Z,12.10
2019-05-29T19:30:37.120Z,12.10
2019-05-29T19:33:07.030Z,12.00
2019-05-29T19:35:37.055Z,11.90
2019-05-29T19:38:07.125Z,11.90
2019-05-29T19:40:37.302Z,11.80
2019-05-29T19:43:07.376Z,11.80
2019-05-29T19:45:37.330Z,11.70
2019-05-29T19:48:07.384Z,11.70
2019-05-29T19:50:37.729Z,11.60
2019-05-29T19:53:08.460Z,11.60
2019-05-29T19:55:39.616Z,11.60
2019-05-29T19:58:09.925Z,11.60
2019-05-29T20:00:40.249Z,11.50
2019-05-29T20:03:10.777Z,11.40
2019-05-29T20:05:41.108Z,11.30
2019-05-29T20:08:11.628Z,11.20
2019-05-29T20:10:41.958Z,11.20
2019-05-29T20:13:12.481Z,11.20
2019-05-29T20:15:43.626Z,11.10
2019-05-29T20:18:14.564Z,11.00
2019-05-29T20:20:44.889Z,10.90
2019-05-29T20:23:15.415Z,10.70
2019-05-29T20:25:45.742Z,10.60
2019-05-29T20:28:16.257Z,10.60
2019-05-29T20:30:47.005Z,10.50
2019-05-29T20:33:17.531Z,10.50
2019-05-29T20:35:48.057Z,10.50
2019-05-29T20:38:18.384Z,10.50
2019-05-29T20:40:48.801Z,10.50
2019-05-29T20:43:19.848Z,10.50
2019-05-29T20:45:50.176Z,10.50
2019-05-29T20:48:20.696Z,10.50
2019-05-29T20:50:51.024Z,10.30
2019-05-29T20:53:21.758Z,10.20
2019-05-29T20:55:51.687Z,10.20
2019-05-29T20:58:24.892Z,10.10
2019-05-29T21:00:54.369Z,10.00
2019-05-29T21:03:24.794Z,9.90
2019-05-29T21:08:44.683Z,9.80
2019-05-29T21:11:15.740Z,9.70
2019-05-29T21:13:46.057Z,9.60
2019-05-29T21:16:16.584Z,9.50
2019-05-29T21:18:47.113Z,9.40
2019-05-29T21:21:17.207Z,9.40
2019-05-29T21:23:47.170Z,9.30
2019-05-29T21:26:17.219Z,9.20
2019-05-29T21:28:50.666Z,9.20
2019-05-29T21:31:18.946Z,9.10
2019-05-29T21:33:49.879Z,9.00
2019-05-29T21:36:20.199Z,9.00
2019-05-29T21:38:50.934Z,9.00
2019-05-29T21:41:21.051Z,8.90
2019-05-29T21:43:51.170Z,8.90
2019-05-29T21:46:21.701Z,8.90
2019-05-29T21:48:52.024Z,8.80
2019-05-29T21:51:22.144Z,8.80
2019-05-29T21:53:52.669Z,8.70
2019-05-29T21:56:23.200Z,8.70
2019-05-29T21:59:02.651Z,8.70
2019-05-29T22:01:26.171Z,8.70
2019-05-29T22:03:57.039Z,8.60
2019-05-29T22:06:27.362Z,8.70
2019-05-29T22:08:57.888Z,8.70
2019-05-29T22:11:28.144Z,8.70
2019-05-29T22:13:58.732Z,8.60
2019-05-29T22:16:29.272Z,8.60
2019-05-29T22:19:03.872Z,8.60
2019-05-29T22:21:31.566Z,8.50
2019-05-29T22:24:02.086Z,8.50
2019-05-29T22:26:32.410Z,8.40
2019-05-29T22:29:17.115Z,8.40
2019-05-29T22:31:34.898Z,8.40
2019-05-29T22:34:05.441Z,8.40
2019-05-29T22:36:35.958Z,8.40
2019-05-29T22:39:07.516Z,8.40
2019-05-29T22:41:38.244Z,8.40
2019-05-29T22:44:08.981Z,8.30
2019-05-29T22:46:39.508Z,8.40
2019-05-29T22:49:09.827Z,8.30
2019-05-29T22:51:40.358Z,8.30
2019-05-29T22:54:10.683Z,8.30
2019-05-29T22:56:41.006Z,8.40
2019-05-29T22:59:11.126Z,8.30
2019-05-29T23:01:41.658Z,8.20
2019-05-29T23:04:11.771Z,8.30
2019-05-29T23:06:42.301Z,8.30
2019-05-29T23:09:12.628Z,8.30
2019-05-29T23:11:42.961Z,8.20
2019-05-29T23:14:13.681Z,8.20
2019-05-29T23:16:44.213Z,8.20
2019-05-29T23:19:14.941Z,8.20
2019-05-29T23:21:45.882Z,8.20
2019-05-29T23:24:16.208Z,8.20
2019-05-29T23:26:46.529Z,8.10
2019-05-29T23:29:16.851Z,8.10
2019-05-29T23:31:47.379Z,8.20
2019-05-29T23:34:17.703Z,8.20
2019-05-29T23:36:48.027Z,8.10
2019-05-29T23:39:18.362Z,8.10
2019-05-29T23:41:48.880Z,8.10
2019-05-29T23:44:19.203Z,8.10
2019-05-29T23:46:49.733Z,8.10
2019-05-29T23:49:20.274Z,8.10
2019-05-29T23:51:50.590Z,8.10
2019-05-29T23:54:21.113Z,8.10
2019-05-29T23:56:51.452Z,8.00
2019-05-29T23:59:21.754Z,8.00
